Time;durP1;ratioP1;P1;durP2;ratioP2;P2;SDS_P1;SDS_P2;PMS_P1;PMS_P2;Temp;Humidity;BMP_temperature;BMP_pressure;BME280_temperature;BME280_humidity;BME280_pressure;Samples;Min_cycle;Max_cycle;Signal;HPM_P1;HPM_P2
2022/02/22 00:00:00;;;;;;;17.60;9.63;;;;;;;7.87;95.61;93776.97;5063130;28;20531;-48
2022/02/22 00:02:26;;;;;;;17.25;9.48;;;;;;;7.87;95.85;93776.97;5062988;28;20718;-46
2022/02/22 00:04:53;;;;;;;20.33;9.85;;;;;;;7.79;95.35;93785.94;5062660;28;20091;-47
2022/02/22 00:07:20;;;;;;;19.48;10.23;;;;;;;7.79;94.87;93775.56;5062919;28;20041;-47
2022/02/22 00:09:47;;;;;;;16.45;9.32;;;;;;;7.72;94.89;93780.91;5044961;28;20118;-47
2022/02/22 00:12:14;;;;;;;18.60;9.82;;;;;;;7.62;95.15;93775.63;5059433;28;20040;-46
2022/02/22 00:14:43;;;;;;;17.83;9.52;;;;;;;7.59;95.42;93776.09;5060796;28;20051;-46
2022/02/22 00:17:10;;;;;;;23.10;9.50;;;;;;;7.59;95.28;93765.72;5061336;28;20036;-47
2022/02/22 00:19:37;;;;;;;14.77;9.27;;;;;;;7.56;95.27;93761.00;5063650;28;20041;-48
2022/02/22 00:22:04;;;;;;;19.05;9.57;;;;;;;7.50;96.16;93756.78;5063639;28;20040;-46
2022/02/22 00:24:31;;;;;;;18.45;10.38;;;;;;;7.46;97.87;93752.06;5063407;28;20433;-49
2022/02/22 00:26:58;;;;;;;21.38;10.85;;;;;;;7.53;99.74;93756.31;5063005;28;20414;-47
2022/02/22 00:29:25;;;;;;;26.67;12.25;;;;;;;7.61;100.00;93758.50;5061783;28;20037;-46
2022/02/22 00:31:52;;;;;;;23.50;11.68;;;;;;;7.67;100.00;93762.75;5046997;28;20048;-47
2022/02/22 00:34:18;;;;;;;23.52;12.63;;;;;;;7.72;100.00;93759.41;5062530;28;20048;-46
2022/02/22 00:36:48;;;;;;;19.17;12.00;;;;;;;7.71;100.00;93743.09;5060581;28;20152;-47
2022/02/22 00:39:14;;;;;;;17.02;10.93;;;;;;;7.87;100.00;93751.03;5063091;28;20384;-46
2022/02/22 00:41:41;;;;;;;22.20;11.95;;;;;;;7.95;100.00;93758.41;5060480;28;20112;-49
2022/02/22 00:44:08;;;;;;;20.15;10.80;;;;;;;7.97;100.00;93746.00;5061522;28;20490;-46
2022/02/22 00:46:35;;;;;;;22.77;12.93;;;;;;;8.02;100.00;93738.28;5061318;28;20063;-46
2022/02/22 00:49:02;;;;;;;21.00;10.68;;;;;;;8.02;100.00;93744.25;5062281;28;20048;-50
2022/02/22 00:51:29;;;;;;;19.55;11.55;;;;;;;7.99;100.00;93738.75;5060485;28;20049;-50
2022/02/22 00:53:55;;;;;;;26.27;12.48;;;;;;;8.04;100.00;93746.59;5062488;28;20450;-47
2022/02/22 00:56:22;;;;;;;21.23;12.38;;;;;;;8.08;100.00;93742.50;5061369;28;20121;-46
2022/02/22 00:58:49;;;;;;;26.60;14.93;;;;;;;8.08;100.00;93731.34;5061419;28;20114;-47
2022/02/22 01:01:17;;;;;;;21.73;13.10;;;;;;;8.04;100.00;93731.81;5061831;28;20498;-46
2022/02/22 01:03:45;;;;;;;24.20;13.05;;;;;;;8.02;100.00;93741.66;5060611;28;20051;-47
2022/02/22 01:06:12;;;;;;;25.60;13.38;;;;;;;8.02;100.00;93743.47;5062418;28;20055;-47
2022/02/22 01:08:39;;;;;;;26.05;13.75;;;;;;;7.97;100.00;93746.00;5061238;28;20807;-47
2022/02/22 01:11:07;;;;;;;22.15;12.60;;;;;;;8.01;100.00;93753.06;5056850;28;20045;-47
2022/02/22 01:13:33;;;;;;;23.20;12.75;;;;;;;7.99;100.00;93749.13;5060548;28;20048;-50
2022/02/22 01:16:00;;;;;;;26.52;11.57;;;;;;;8.00;100.00;93746.28;5061489;28;20044;-47
2022/02/22 01:18:27;;;;;;;20.02;10.85;;;;;;;7.97;100.00;93730.44;5059888;28;20048;-48
2022/02/22 01:20:59;;;;;;;20.20;11.70;;;;;;;8.00;100.00;93729.97;5059864;28;20055;-48
2022/02/22 01:23:26;;;;;;;21.55;12.57;;;;;;;7.97;100.00;93720.06;5061230;28;20037;-47
2022/02/22 01:25:56;;;;;;;20.70;12.07;;;;;;;7.95;100.00;93717.72;5061391;28;20117;-48
2022/02/22 01:28:22;;;;;;;24.23;11.70;;;;;;;7.99;100.00;93725.78;5060850;28;20044;-47
2022/02/22 01:30:49;;;;;;;22.92;12.45;;;;;;;7.99;100.00;93718.78;5059395;28;20589;-46
2022/02/22 01:33:16;;;;;;;28.85;12.95;;;;;;;7.97;100.00;93722.66;5060916;28;20043;-47
2022/02/22 01:35:44;;;;;;;20.55;11.07;;;;;;;7.97;100.00;93707.09;5060804;28;20048;-47
2022/02/22 01:38:11;;;;;;;23.52;11.27;;;;;;;8.04;100.00;93726.63;5059346;28;20044;-46
2022/02/22 01:40:38;;;;;;;19.52;11.73;;;;;;;8.09;100.00;93715.53;5059724;28;20044;-46
2022/02/22 01:43:04;;;;;;;21.10;10.98;;;;;;;8.08;100.00;93726.94;5061408;28;22959;-47
2022/02/22 01:45:33;;;;;;;16.95;10.10;;;;;;;8.12;100.00;93733.22;5060840;28;20454;-47
2022/02/22 01:48:01;;;;;;;19.42;11.30;;;;;;;8.22;100.00;93740.31;5061650;28;20481;-50
2022/02/22 01:50:27;;;;;;;18.88;10.40;;;;;;;8.29;100.00;93742.75;5060464;28;20117;-48
2022/02/22 01:52:54;;;;;;;21.90;10.45;;;;;;;8.35;100.00;93739.16;5058382;28;20473;-52
2022/02/22 01:55:21;;;;;;;22.52;9.48;;;;;;;8.34;100.00;93724.63;5060754;28;20044;-49
2022/02/22 01:57:48;;;;;;;15.65;10.35;;;;;;;8.33;100.00;93723.06;5060393;28;20060;-47
2022/02/22 02:00:16;;;;;;;18.17;10.40;;;;;;;8.32;100.00;93724.06;5056709;28;20049;-46
2022/02/22 02:02:43;;;;;;;19.42;10.73;;;;;;;8.39;100.00;93727.25;5060288;28;20032;-50
2022/02/22 02:05:11;;;;;;;18.35;9.27;;;;;;;8.39;100.00;93735.03;5060529;28;20045;-48
2022/02/22 02:07:38;;;;;;;16.23;10.27;;;;;;;8.37;99.80;93737.09;5059845;28;20055;-47
2022/02/22 02:10:05;;;;;;;17.33;9.23;;;;;;;8.38;99.50;93730.91;5059045;28;20041;-47
2022/02/22 02:12:39;;;;;;;14.98;9.40;;;;;;;8.38;99.36;93736.88;5056338;28;20524;-48
2022/02/22 02:15:08;;;;;;;15.68;8.98;;;;;;;8.38;98.99;93725.72;5060471;28;20036;-48
2022/02/22 02:17:35;;;;;;;18.13;8.18;;;;;;;8.30;98.76;93728.72;5059795;28;20106;-47
2022/02/22 02:20:07;;;;;;;18.58;8.30;;;;;;;8.32;98.87;93731.84;5060573;28;20051;-47
2022/02/22 02:22:33;;;;;;;12.90;7.50;;;;;;;8.30;98.61;93744.28;5060257;28;20052;-48
2022/02/22 02:25:00;;;;;;;16.73;8.65;;;;;;;8.29;98.78;93743.53;5059738;28;20044;-47
2022/02/22 02:27:27;;;;;;;15.75;8.50;;;;;;;8.32;98.71;93752.63;5059456;28;20102;-50
2022/02/22 02:29:59;;;;;;;22.42;10.50;;;;;;;8.29;98.93;93747.94;5060789;28;20037;-46
2022/02/22 02:32:26;;;;;;;14.45;9.40;;;;;;;8.31;99.11;93738.09;5058355;28;20047;-49
2022/02/22 02:34:53;;;;;;;16.38;9.88;;;;;;;8.34;98.78;93737.63;5059028;28;20056;-51
2022/02/22 02:37:20;;;;;;;20.98;10.00;;;;;;;8.29;99.10;93734.97;5060890;28;20045;-46
2022/02/22 02:39:47;;;;;;;19.65;9.48;;;;;;;8.29;99.35;93732.38;5059874;28;20044;-50
2022/02/22 02:42:16;;;;;;;21.40;9.07;;;;;;;8.26;99.50;93738.81;5060023;28;20119;-49
2022/02/22 02:44:48;;;;;;;15.43;8.52;;;;;;;8.24;99.20;93739.03;5060804;28;20101;-48
2022/02/22 02:47:15;;;;;;;18.25;8.10;;;;;;;8.23;99.23;93740.09;5060522;28;20036;-49
2022/02/22 02:49:43;;;;;;;18.50;8.15;;;;;;;8.07;99.84;93733.16;5059824;28;20101;-49
2022/02/22 02:52:10;;;;;;;18.77;8.88;;;;;;;8.11;99.85;93742.03;5058240;28;20082;-48
2022/02/22 02:54:37;;;;;;;13.88;8.50;;;;;;;8.11;99.82;93736.84;5058748;28;20118;-50
2022/02/22 02:57:04;;;;;;;13.27;7.55;;;;;;;8.11;99.73;93731.66;5060196;28;20102;-47
2022/02/22 02:59:31;;;;;;;15.70;8.73;;;;;;;8.08;100.00;93742.50;5057024;28;20040;-47
2022/02/22 03:01:58;;;;;;;20.27;9.95;;;;;;;8.15;100.00;93732.72;5058461;28;20041;-46
2022/02/22 03:04:28;;;;;;;16.73;8.70;;;;;;;8.18;99.95;93737.44;5058329;28;20426;-46
2022/02/22 03:06:55;;;;;;;14.25;8.55;;;;;;;8.12;100.00;93738.41;5057939;28;20110;-48
2022/02/22 03:09:21;;;;;;;16.17;8.75;;;;;;;8.19;99.66;93743.41;5059610;28;20041;-47
2022/02/22 03:11:50;;;;;;;13.73;8.93;;;;;;;8.20;100.00;93737.97;5055560;28;20597;-46
2022/02/22 03:14:17;;;;;;;19.52;11.00;;;;;;;8.30;100.00;93739.09;5058929;28;20044;-47
2022/02/22 03:16:44;;;;;;;19.75;10.32;;;;;;;8.32;100.00;93731.84;5059480;28;20048;-46
2022/02/22 03:19:11;;;;;;;17.20;9.57;;;;;;;8.33;100.00;93738.63;5058457;28;20045;-47
2022/02/22 03:21:38;;;;;;;19.10;10.38;;;;;;;8.35;100.00;93731.38;5061217;28;20049;-47
2022/02/22 03:24:05;;;;;;;19.88;11.15;;;;;;;8.37;100.00;93729.31;5059357;28;20033;-48
2022/02/22 03:26:33;;;;;;;19.58;9.85;;;;;;;8.37;100.00;93734.50;5063285;28;20040;-47
2022/02/22 03:29:00;;;;;;;18.67;10.07;;;;;;;8.30;100.00;93739.09;5063215;28;20511;-48
2022/02/22 03:31:28;;;;;;;21.33;10.50;;;;;;;8.26;100.00;93733.63;5063238;28;20798;-48
2022/02/22 03:33:56;;;;;;;18.85;10.15;;;;;;;8.23;100.00;93734.91;5078891;28;20502;-47
2022/02/22 03:36:25;;;;;;;18.70;10.70;;;;;;;8.15;100.00;93737.91;5063819;28;20403;-47
2022/02/22 03:38:52;;;;;;;21.05;10.27;;;;;;;8.16;100.00;93731.72;5062155;28;20064;-47
2022/02/22 03:41:19;;;;;;;20.48;10.90;;;;;;;8.12;100.00;93730.63;5062731;28;20044;-48
2022/02/22 03:43:46;;;;;;;18.83;11.05;;;;;;;8.12;100.00;93738.41;5064738;28;20040;-48
2022/02/22 03:46:13;;;;;;;20.67;11.93;;;;;;;8.12;100.00;93738.41;5062126;28;20067;-47
2022/02/22 03:48:39;;;;;;;22.05;12.15;;;;;;;8.11;100.00;93736.84;5061909;28;20051;-48
2022/02/22 03:51:06;;;;;;;25.90;12.00;;;;;;;8.15;100.00;93737.91;5062468;28;20041;-49
2022/02/22 03:53:33;;;;;;;29.02;13.93;;;;;;;8.15;100.00;93737.91;5060941;28;20036;-47
2022/02/22 03:56:00;;;;;;;28.25;12.85;;;;;;;8.07;100.00;93746.13;5062070;28;20056;-48
2022/02/22 03:58:27;;;;;;;24.35;13.63;;;;;;;7.87;100.00;93740.69;5060870;28;20188;-46
2022/02/22 04:00:53;;;;;;;24.23;13.32;;;;;;;7.88;100.00;93743.03;5062437;28;20071;-48
2022/02/22 04:03:20;;;;;;;27.15;14.48;;;;;;;7.91;100.00;93741.78;5062174;28;20041;-49
2022/02/22 04:05:47;;;;;;;28.02;15.02;;;;;;;7.91;100.00;93749.56;5062750;28;20044;-50
2022/02/22 04:08:14;;;;;;;28.25;14.93;;;;;;;7.91;100.00;93749.56;5061314;28;20088;-46
2022/02/22 04:10:41;;;;;;;28.80;14.13;;;;;;;7.89;100.00;93749.03;5062669;28;20434;-47
2022/02/22 04:13:08;;;;;;;30.48;13.57;;;;;;;7.80;100.00;93741.66;5057330;28;20048;-47
2022/02/22 04:15:35;;;;;;;29.70;14.35;;;;;;;7.80;100.00;93746.06;5062500;28;20032;-46
2022/02/22 04:18:02;;;;;;;26.77;14.45;;;;;;;7.77;100.00;93749.13;5061109;28;20044;-47
2022/02/22 04:20:29;;;;;;;28.90;15.60;;;;;;;7.79;100.00;93745.25;5060863;28;20060;-49
2022/02/22 04:22:56;;;;;;;31.40;14.35;;;;;;;7.84;100.00;93749.72;5062628;28;20589;-46
2022/02/22 04:25:22;;;;;;;27.23;13.32;;;;;;;7.81;100.00;93753.59;5059982;28;20786;-49
2022/02/22 04:27:50;;;;;;;36.30;16.33;;;;;;;7.77;100.00;93757.66;5063309;28;20414;-47
2022/02/22 04:30:17;;;;;;;28.38;16.25;;;;;;;7.77;100.00;93749.91;5061755;28;20044;-49
2022/02/22 04:32:44;;;;;;;37.25;18.10;;;;;;;7.59;100.00;93755.34;5060643;28;20083;-48
2022/02/22 04:35:11;;;;;;;26.13;14.88;;;;;;;7.30;100.00;93747.69;5060707;28;20039;-49
2022/02/22 04:37:38;;;;;;;39.85;19.10;;;;;;;7.27;100.00;93748.16;5060661;28;20053;-50
2022/02/22 04:40:06;;;;;;;39.47;21.00;;;;;;;7.38;100.00;93749.91;5059342;28;20047;-50
2022/02/22 04:42:33;;;;;;;42.40;19.83;;;;;;;7.40;100.00;93758.22;5061858;28;20512;-47
2022/02/22 04:44:59;;;;;;;34.15;17.35;;;;;;;7.40;100.00;93757.41;5060796;28;20101;-48
2022/02/22 04:47:26;;;;;;;31.10;16.45;;;;;;;7.41;100.00;93764.94;5061420;28;20079;-47
2022/02/22 04:49:53;;;;;;;52.03;24.77;;;;;;;7.40;100.00;93776.34;5062441;28;20110;-48
2022/02/22 04:52:20;;;;;;;51.72;22.88;;;;;;;7.39;100.00;93777.34;5062042;28;20107;-48
2022/02/22 04:54:46;;;;;;;50.42;22.08;;;;;;;7.30;100.00;93794.31;5062344;28;20040;-47
2022/02/22 04:57:13;;;;;;;44.35;21.60;;;;;;;7.24;100.00;93790.09;5060883;28;20056;-48
2022/02/22 04:59:40;;;;;;;35.53;17.77;;;;;;;7.31;100.00;93803.66;5061344;28;20056;-48
2022/02/22 05:02:07;;;;;;;26.73;15.00;;;;;;;7.20;100.00;93807.09;5062036;28;20169;-48
2022/02/22 05:04:33;;;;;;;29.13;13.52;;;;;;;7.14;100.00;93819.19;5061557;28;20517;-48
2022/02/22 05:07:00;;;;;;;15.50;7.68;;;;;;;6.98;100.00;93797.41;5061942;28;20138;-48
2022/02/22 05:09:27;;;;;;;12.85;7.35;;;;;;;7.03;100.00;93805.28;5047536;28;20060;-49
2022/02/22 05:11:54;;;;;;;18.50;8.65;;;;;;;7.03;100.00;93815.63;5056421;28;20045;-47
2022/02/22 05:14:21;;;;;;;16.70;7.85;;;;;;;7.02;100.00;93824.44;5060239;28;20041;-47
2022/02/22 05:16:48;;;;;;;13.13;6.85;;;;;;;6.99;100.00;93814.53;5061343;28;20052;-48
2022/02/22 05:19:17;;;;;;;17.13;7.97;;;;;;;6.98;100.00;93823.31;5060636;28;20097;-50
2022/02/22 05:21:44;;;;;;;7.45;4.50;;;;;;;6.87;100.00;93813.78;5062675;28;20052;-48
2022/02/22 05:24:11;;;;;;;9.57;5.78;;;;;;;6.92;100.00;93829.41;5061249;28;20052;-48
2022/02/22 05:26:37;;;;;;;13.88;6.18;;;;;;;6.86;100.00;93830.34;5062350;28;20460;-46
2022/02/22 05:29:05;;;;;;;10.07;4.97;;;;;;;6.87;100.00;93831.91;5062224;28;20076;-48
2022/02/22 05:31:33;;;;;;;12.15;6.53;;;;;;;6.76;100.00;93830.16;5062409;28;20047;-47
2022/02/22 05:34:00;;;;;;;11.15;5.75;;;;;;;6.59;100.00;93833.50;5062029;28;20510;-51
2022/02/22 05:36:27;;;;;;;8.48;5.22;;;;;;;6.57;100.00;93840.69;5062032;28;20044;-47
2022/02/22 05:38:53;;;;;;;11.90;5.97;;;;;;;6.61;100.00;93849.56;5061163;28;20109;-47
2022/02/22 05:41:20;;;;;;;13.50;5.57;;;;;;;6.66;100.00;93852.25;5061843;28;20044;-49
2022/02/22 05:43:48;;;;;;;10.10;6.05;;;;;;;6.64;100.00;93854.25;5058193;28;20045;-48
2022/02/22 05:46:17;;;;;;;11.60;4.80;;;;;;;6.61;100.00;93848.75;5062578;28;20036;-48
2022/02/22 05:48:44;;;;;;;9.90;5.90;;;;;;;6.58;100.00;93855.19;5062130;28;20106;-46
2022/02/22 05:51:12;;;;;;;11.90;7.10;;;;;;;6.59;100.00;93856.78;5060482;28;20043;-46
2022/02/22 05:53:40;;;;;;;10.40;5.40;;;;;;;6.56;100.00;93857.22;5060712;28;20189;-48
2022/02/22 05:56:07;;;;;;;10.70;5.90;;;;;;;6.57;100.00;93871.75;5060292;28;20139;-47
2022/02/22 05:58:34;;;;;;;8.50;4.85;;;;;;;6.53;100.00;93856.91;5060626;28;20514;-47
2022/02/22 06:01:01;;;;;;;6.93;3.05;;;;;;;6.60;100.00;93860.91;5057722;28;20399;-47
2022/02/22 06:03:28;;;;;;;6.82;3.38;;;;;;;6.63;100.00;93863.06;5059209;28;20068;-47
2022/02/22 06:05:55;;;;;;;9.55;2.97;;;;;;;6.66;100.00;93862.59;5058586;28;20068;-50
2022/02/22 06:08:22;;;;;;;3.33;2.17;;;;;;;6.70;100.00;93863.72;5061528;28;20079;-50
2022/02/22 06:10:48;;;;;;;3.70;2.08;;;;;;;6.71;100.00;93864.50;5058829;28;20053;-49
2022/02/22 06:13:18;;;;;;;2.50;1.63;;;;;;;6.63;100.00;93850.13;5056781;28;20178;-47
2022/02/22 06:15:45;;;;;;;1.67;1.20;;;;;;;6.68;100.00;93855.41;5058662;28;20097;-47
2022/02/22 06:18:12;;;;;;;3.42;1.75;;;;;;;6.69;100.00;93854.38;5061281;28;20044;-47
2022/02/22 06:20:39;;;;;;;4.13;1.50;;;;;;;6.67;100.00;93848.63;5058219;28;20044;-48
2022/02/22 06:23:06;;;;;;;2.60;1.48;;;;;;;6.76;100.00;93850.88;5054104;28;20051;-47
2022/02/22 06:25:34;;;;;;;3.33;1.83;;;;;;;6.79;100.00;93855.56;5060283;28;20498;-46
2022/02/22 06:28:01;;;;;;;5.80;2.35;;;;;;;6.84;100.00;93847.91;5058079;28;20113;-48
2022/02/22 06:30:32;;;;;;;4.25;1.83;;;;;;;6.86;100.00;93851.03;5053682;28;20456;-52
2022/02/22 06:32:59;;;;;;;4.03;2.28;;;;;;;6.91;100.00;93852.94;5054490;28;20122;-48
2022/02/22 06:35:26;;;;;;;3.20;1.98;;;;;;;7.00;100.00;93852.34;5054845;28;20718;-52
2022/02/22 06:37:53;;;;;;;2.05;1.23;;;;;;;7.13;100.00;93855.66;5058366;28;20833;-51
2022/02/22 06:40:20;;;;;;;2.88;1.52;;;;;;;7.25;100.00;93848.63;5058263;28;20040;-48
2022/02/22 06:42:50;;;;;;;3.20;1.80;;;;;;;7.34;100.00;93847.22;5057248;28;20145;-48
2022/02/22 06:45:17;;;;;;;2.35;1.20;;;;;;;7.47;100.00;93846.91;5060264;28;20056;-48
2022/02/22 06:47:44;;;;;;;6.05;1.98;;;;;;;7.63;100.00;93852.31;5054189;28;20048;-47
2022/02/22 06:50:12;;;;;;;3.80;2.10;;;;;;;7.80;100.00;93855.69;5059524;28;20049;-49
2022/02/22 06:52:40;;;;;;;4.55;2.67;;;;;;;7.90;100.00;93849.09;5055569;28;20102;-49
2022/02/22 06:55:09;;;;;;;6.10;2.22;;;;;;;8.02;100.00;93844.59;5058403;28;20040;-47
2022/02/22 06:57:37;;;;;;;4.72;1.50;;;;;;;8.09;100.00;93842.63;5060127;28;20048;-52
2022/02/22 07:00:09;;;;;;;3.40;1.70;;;;;;;8.24;100.00;93844.63;5059077;28;20079;-47
2022/02/22 07:02:40;;;;;;;2.15;1.77;;;;;;;8.39;100.00;93851.81;5059829;28;20049;-48
2022/02/22 07:05:08;;;;;;;22.38;2.22;;;;;;;8.52;100.00;93843.72;5058841;28;20053;-47
2022/02/22 07:07:36;;;;;;;5.18;2.03;;;;;;;8.85;100.00;93854.97;5064017;28;20110;-49
2022/02/22 07:10:04;;;;;;;3.70;2.08;;;;;;;9.03;100.00;93860.88;5062056;28;20060;-47
2022/02/22 07:12:34;;;;;;;5.50;2.60;;;;;;;8.82;100.00;93845.06;5058131;28;20043;-49
2022/02/22 07:15:01;;;;;;;10.80;5.53;;;;;;;9.07;100.00;93856.75;5057297;28;20072;-51
2022/02/22 07:17:28;;;;;;;7.47;3.22;;;;;;;9.24;100.00;93854.03;5057670;28;20040;-51
2022/02/22 07:19:55;;;;;;;11.88;5.15;;;;;;;9.30;100.00;93860.88;5063438;28;20087;-52
2022/02/22 07:22:22;;;;;;;12.38;5.68;;;;;;;9.48;100.00;93859.72;5063158;28;20044;-47
2022/02/22 07:24:49;;;;;;;21.00;7.70;;;;;;;9.50;100.00;93857.66;5061203;28;20047;-48
2022/02/22 07:27:15;;;;;;;48.28;15.13;;;;;;;9.42;100.00;93855.50;5060441;28;20044;-48
2022/02/22 07:29:42;;;;;;;8.63;4.40;;;;;;;9.52;100.00;93837.41;5062168;28;20057;-49
2022/02/22 07:32:09;;;;;;;23.65;8.00;;;;;;;9.63;100.00;93843.47;5062589;28;20406;-49
2022/02/22 07:34:36;;;;;;;12.63;6.72;;;;;;;9.85;100.00;93840.75;5060212;28;20049;-47
2022/02/22 07:37:04;;;;;;;57.00;17.15;;;;;;;9.80;100.00;93851.16;5049825;28;20041;-48
2022/02/22 07:39:30;;;;;;;31.88;7.10;;;;;;;9.86;100.00;93843.09;5059985;28;20048;-48
2022/02/22 07:41:57;;;;;;;12.23;3.22;;;;;;;10.14;100.00;93855.00;5063402;28;20083;-50
2022/02/22 07:44:24;;;;;;;5.05;2.25;;;;;;;10.40;100.00;93846.56;5061900;28;20101;-50
2022/02/22 07:46:51;;;;;;;24.13;7.00;;;;;;;10.29;100.00;93849.09;5063516;28;20055;-49
2022/02/22 07:49:18;;;;;;;5.40;2.58;;;;;;;10.51;100.00;93859.41;5063978;28;20052;-50
2022/02/22 07:51:45;;;;;;;9.10;3.28;;;;;;;10.63;100.00;93855.78;5064256;28;20131;-48
2022/02/22 07:54:12;;;;;;;7.35;2.65;;;;;;;10.66;100.00;93857.88;5061153;28;20602;-50
2022/02/22 07:56:38;;;;;;;3.10;2.28;;;;;;;10.73;100.00;93861.00;5060407;28;20109;-51
2022/02/22 07:59:05;;;;;;;4.10;1.48;;;;;;;10.88;100.00;93858.47;5063453;28;20056;-48
2022/02/22 08:01:32;;;;;;;3.83;2.00;;;;;;;10.59;100.00;93850.31;5060907;28;21079;-48
2022/02/22 08:03:59;;;;;;;3.83;1.65;;;;;;;10.44;99.75;93865.84;5062923;28;20043;-48
2022/02/22 08:06:26;;;;;;;6.75;1.85;;;;;;;10.28;100.00;93854.53;5057871;28;20738;-50
2022/02/22 08:08:53;;;;;;;2.95;1.63;;;;;;;10.36;100.00;93861.13;5065161;28;22241;-47
2022/02/22 08:11:20;;;;;;;5.57;2.05;;;;;;;10.43;100.00;93852.06;5061248;28;20044;-48
2022/02/22 08:13:49;;;;;;;3.40;2.22;;;;;;;10.22;100.00;93855.56;5057393;28;20048;-47
2022/02/22 08:16:16;;;;;;;2.35;1.48;;;;;;;10.16;100.00;93862.56;5063256;28;20036;-48
2022/02/22 08:18:43;;;;;;;5.43;3.10;;;;;;;10.10;100.00;93864.34;5064312;28;20436;-47
2022/02/22 08:21:10;;;;;;;4.75;2.65;;;;;;;9.70;100.00;93850.00;5060257;28;20068;-50
2022/02/22 08:23:37;;;;;;;5.40;3.13;;;;;;;9.86;100.00;93857.94;5063488;28;20052;-47
2022/02/22 08:26:04;;;;;;;3.03;1.70;;;;;;;9.83;100.00;93866.22;5062658;28;20041;-50
2022/02/22 08:28:31;;;;;;;6.85;3.95;;;;;;;9.75;100.00;93857.84;5064092;28;20048;-49
2022/02/22 08:30:58;;;;;;;9.88;4.53;;;;;;;9.70;100.00;93860.41;5059195;28;20044;-49
2022/02/22 08:33:25;;;;;;;13.25;5.07;;;;;;;9.50;100.00;93870.66;5053519;28;20064;-51
2022/02/22 08:35:56;;;;;;;15.73;7.40;;;;;;;9.64;100.00;93866.63;5051813;28;20598;-46
2022/02/22 08:38:23;;;;;;;7.97;5.63;;;;;;;9.77;100.00;93876.59;5063180;28;20521;-50
2022/02/22 08:40:51;;;;;;;6.65;4.30;;;;;;;9.71;100.00;93877.59;5063604;28;20048;-46
2022/02/22 08:43:18;;;;;;;5.47;3.70;;;;;;;9.51;100.00;93883.41;5063220;28;20506;-47
2022/02/22 08:45:46;;;;;;;5.05;3.33;;;;;;;9.58;100.00;93891.00;5062755;28;20554;-48
2022/02/22 08:48:14;;;;;;;4.28;2.42;;;;;;;9.61;100.00;93898.31;5062924;28;20478;-49
2022/02/22 08:50:42;;;;;;;9.02;3.40;;;;;;;9.49;100.00;93897.66;5060241;28;20490;-51
2022/02/22 08:53:10;;;;;;;6.63;3.88;;;;;;;9.38;100.00;93900.19;5061728;28;20480;-51
2022/02/22 08:55:37;;;;;;;11.73;6.85;;;;;;;9.27;100.00;93908.91;5059306;28;20074;-50
2022/02/22 08:58:04;;;;;;;9.18;3.85;;;;;;;9.23;100.00;93897.44;5048941;28;20646;-48
2022/02/22 09:00:31;;;;;;;14.00;4.47;;;;;;;9.19;100.00;93891.16;5054832;28;20044;-48
2022/02/22 09:03:03;;;;;;;6.68;3.35;;;;;;;9.23;100.00;93907.81;5049063;28;20077;-48
2022/02/22 09:05:33;;;;;;;10.65;5.47;;;;;;;9.28;100.00;93900.09;5061860;28;20058;-52
2022/02/22 09:08:04;;;;;;;12.77;7.10;;;;;;;9.36;100.00;93906.66;5062171;28;20162;-50
2022/02/22 09:10:32;;;;;;;13.65;7.03;;;;;;;9.43;100.00;93906.47;5061795;28;20049;-49
2022/02/22 09:12:59;;;;;;;13.45;7.32;;;;;;;9.32;100.00;93914.16;5055440;28;20033;-50
2022/02/22 09:15:31;;;;;;;10.98;6.35;;;;;;;9.31;100.00;93915.19;5052783;28;20037;-47
2022/02/22 09:18:00;;;;;;;8.05;4.38;;;;;;;9.36;100.00;93917.84;5052386;28;20090;-52
2022/02/22 09:20:27;;;;;;;8.25;4.93;;;;;;;9.38;100.00;93926.19;5051543;28;20417;-48
2022/02/22 09:22:54;;;;;;;9.38;5.05;;;;;;;9.35;100.00;93924.06;5048714;28;20048;-46
2022/02/22 09:25:21;;;;;;;8.30;4.53;;;;;;;9.33;100.00;93922.75;5052562;28;20045;-50
2022/02/22 09:27:49;;;;;;;5.63;3.22;;;;;;;9.19;100.00;93917.16;5059465;28;20230;-47
2022/02/22 09:30:19;;;;;;;5.68;2.33;;;;;;;9.23;100.00;93925.25;5057117;28;20106;-43
2022/02/22 09:32:49;;;;;;;6.32;2.83;;;;;;;9.10;100.00;93923.81;5056933;28;20110;-44
2022/02/22 09:35:19;;;;;;;4.40;2.53;;;;;;;9.08;100.00;93931.06;5055953;28;20040;-47
2022/02/22 09:37:46;;;;;;;7.03;4.13;;;;;;;9.09;100.00;93923.03;5056693;28;20079;-43
2022/02/22 09:40:14;;;;;;;6.80;3.75;;;;;;;9.12;100.00;93916.56;5063554;28;20409;-44
2022/02/22 09:42:42;;;;;;;5.40;3.08;;;;;;;9.20;100.00;93923.94;5058575;28;20144;-43
2022/02/22 09:45:13;;;;;;;4.18;2.40;;;;;;;9.21;100.00;93924.69;5063058;28;20048;-44
2022/02/22 09:47:42;;;;;;;2.40;1.85;;;;;;;9.13;100.00;93918.13;5057086;28;20045;-45
2022/02/22 09:50:11;;;;;;;6.07;2.65;;;;;;;9.10;100.00;93918.63;5055141;28;20041;-43
2022/02/22 09:52:38;;;;;;;11.32;6.35;;;;;;;8.81;100.00;93921.41;5059415;28;20036;-43
2022/02/22 09:55:06;;;;;;;10.60;5.32;;;;;;;8.30;100.00;93915.50;5053590;28;20041;-43
2022/02/22 09:57:34;;;;;;;13.90;5.43;;;;;;;8.20;100.00;93924.72;5058584;28;20433;-44
2022/02/22 10:00:03;;;;;;;13.60;5.43;;;;;;;7.98;100.00;93919.50;5057047;28;20741;-46
2022/02/22 10:02:38;;;;;;;14.20;5.53;;;;;;;8.05;100.00;93921.94;5061209;28;20048;-44
2022/02/22 10:05:16;;;;;;;14.45;5.25;;;;;;;7.92;100.00;93935.97;5061765;28;20042;-43
2022/02/22 10:08:03;;;;;;;13.70;6.03;;;;;;;7.62;100.00;93931.09;5059921;28;20044;-43
2022/02/22 10:10:36;;;;;;;7.93;4.18;;;;;;;7.30;100.00;93929.00;5054945;28;20111;-44
2022/02/22 10:13:04;;;;;;;13.27;7.70;;;;;;;7.12;100.00;93931.78;5054872;28;20119;-45
2022/02/22 10:15:44;;;;;;;9.63;4.78;;;;;;;6.94;100.00;93924.97;5059684;28;20083;-45
2022/02/22 10:18:12;;;;;;;10.05;4.95;;;;;;;6.94;100.00;93930.16;5059278;28;20282;-44
2022/02/22 10:20:40;;;;;;;13.32;5.95;;;;;;;6.95;100.00;93935.09;5060922;28;20469;-44
2022/02/22 10:23:09;;;;;;;7.15;3.00;;;;;;;6.80;100.00;93939.97;5061936;28;20072;-47
2022/02/22 10:25:36;;;;;;;3.85;2.65;;;;;;;6.56;100.00;93940.00;5058040;28;20033;-43
2022/02/22 10:28:05;;;;;;;5.43;2.55;;;;;;;6.39;100.00;93944.31;5063913;28;20429;-43
2022/02/22 10:30:39;;;;;;;2.83;2.00;;;;;;;6.12;100.00;93939.56;5061988;28;20505;-45
2022/02/22 10:33:12;;;;;;;4.65;2.88;;;;;;;6.06;100.00;93949.03;5058461;28;20050;-43
2022/02/22 10:35:40;;;;;;;2.53;1.55;;;;;;;5.80;100.00;93957.97;5058377;28;20123;-46
2022/02/22 10:38:37;;;;;;;6.75;2.22;;;;;;;5.55;100.00;93966.66;5055702;28;20051;-46
2022/02/22 10:41:15;;;;;;;7.78;4.13;;;;;;;5.43;100.00;93957.31;5048078;28;20541;-44
2022/02/22 10:43:57;;;;;;;6.47;4.47;;;;;;;5.19;100.00;93961.59;5059373;28;20045;-43
2022/02/22 10:46:32;;;;;;;7.20;3.17;;;;;;;5.19;100.00;93966.78;5056913;28;20115;-45
2022/02/22 10:49:03;;;;;;;5.68;3.35;;;;;;;5.11;100.00;93966.06;5057037;28;20041;-46
2022/02/22 10:51:41;;;;;;;8.95;3.72;;;;;;;5.05;100.00;93961.75;5064202;28;20402;-45
2022/02/22 10:54:15;;;;;;;5.93;3.53;;;;;;;4.91;100.00;93970.66;5058933;28;20084;-50
2022/02/22 10:56:42;;;;;;;3.95;2.22;;;;;;;4.79;100.00;93971.38;5059596;28;20045;-45
2022/02/22 10:59:18;;;;;;;4.38;2.72;;;;;;;4.69;100.00;93973.66;5058224;28;20095;-47
2022/02/22 11:01:47;;;;;;;3.33;1.65;;;;;;;4.70;100.00;93984.78;5061624;28;20064;-45
2022/02/22 11:04:14;;;;;;;3.45;2.15;;;;;;;4.53;100.00;93979.41;5056962;28;20048;-44
2022/02/22 11:06:41;;;;;;;3.80;1.90;;;;;;;4.49;100.00;93973.09;5054716;28;20032;-43
2022/02/22 11:09:12;;;;;;;3.85;2.65;;;;;;;4.50;100.00;93972.09;5058143;28;20150;-43
2022/02/22 11:11:50;;;;;;;3.40;2.10;;;;;;;4.46;100.00;93991.56;5058003;28;20053;-43
2022/02/22 11:14:26;;;;;;;2.42;1.90;;;;;;;4.55;100.00;93977.41;5060898;28;20124;-44
2022/02/22 11:16:56;;;;;;;4.35;2.42;;;;;;;4.60;100.00;93985.28;5053385;28;20045;-44
2022/02/22 11:19:40;;;;;;;6.40;3.08;;;;;;;4.52;100.00;93972.66;5057719;28;20047;-43
2022/02/22 11:22:19;;;;;;;2.40;1.58;;;;;;;4.48;100.00;93981.81;5056898;28;20041;-43
2022/02/22 11:24:49;;;;;;;1.65;1.33;;;;;;;4.51;100.00;93982.19;5055394;28;20041;-44
2022/02/22 11:27:35;;;;;;;5.38;3.05;;;;;;;4.48;100.00;93969.72;5062466;28;20485;-42
2022/02/22 11:30:07;;;;;;;2.78;1.50;;;;;;;4.41;100.00;93984.47;5057843;28;20468;-44